sensor_id;sensor_type;location;lat;lon;timestamp;P1;P2;P0
62981;PMS5003;49075;53.988;27.678;2022-10-03T00:03:57;16.6;16.6;13.6
62981;PMS5003;49075;53.988;27.678;2022-10-03T00:14:07;11.3;11;9.5
62981;PMS5003;49075;53.988;27.678;2022-10-03T00:19:30;13.4;13.4;10.6
62981;PMS5003;49075;53.988;27.678;2022-10-03T00:24:38;14;13.8;11.8
62981;PMS5003;49075;53.988;27.678;2022-10-03T00:28:44;14.2;14;11.8
62981;PMS5003;49075;53.988;27.678;2022-10-03T00:33:45;13;13;11.4
62981;PMS5003;49075;53.988;27.678;2022-10-03T00:44:00;14.8;14.4;12.2
62981;PMS5003;49075;53.988;27.678;2022-10-03T00:59:10;12.4;12.2;10
62981;PMS5003;49075;53.988;27.678;2022-10-03T01:08:42;15.8;15.4;13.4
62981;PMS5003;49075;53.988;27.678;2022-10-03T01:14:22;13.3;13.3;11.3
62981;PMS5003;49075;53.988;27.678;2022-10-03T01:18:56;16.6;16;13.8
62981;PMS5003;49075;53.988;27.678;2022-10-03T01:29:21;17.2;15.8;13
62981;PMS5003;49075;53.988;27.678;2022-10-03T01:33:53;18;17.6;13.8
62981;PMS5003;49075;53.988;27.678;2022-10-03T01:38:43;14.2;14.2;11.8
62981;PMS5003;49075;53.988;27.678;2022-10-03T01:43:54;15.2;14.8;13
62981;PMS5003;49075;53.988;27.678;2022-10-03T01:48:42;16.4;16.4;13.8
62981;PMS5003;49075;53.988;27.678;2022-10-03T01:53:45;15;14.6;12.4
62981;PMS5003;49075;53.988;27.678;2022-10-03T01:58:50;18;17.4;14.4
62981;PMS5003;49075;53.988;27.678;2022-10-03T02:08:45;13;12.8;11
62981;PMS5003;49075;53.988;27.678;2022-10-03T02:13:49;16.5;16.5;13.8
62981;PMS5003;49075;53.988;27.678;2022-10-03T02:28:53;13;12.8;10.8
62981;PMS5003;49075;53.988;27.678;2022-10-03T02:38:55;14.6;14.2;12.2
62981;PMS5003;49075;53.988;27.678;2022-10-03T02:53:54;14.8;14.8;12.8
62981;PMS5003;49075;53.988;27.678;2022-10-03T02:59:09;14;14;12.2
62981;PMS5003;49075;53.988;27.678;2022-10-03T03:04:33;16.4;15.6;13.2
62981;PMS5003;49075;53.988;27.678;2022-10-03T03:14:08;16;15.8;13.5
62981;PMS5003;49075;53.988;27.678;2022-10-03T03:19:17;15.6;15.6;14.2
62981;PMS5003;49075;53.988;27.678;2022-10-03T03:24:28;15.8;15.4;14
62981;PMS5003;49075;53.988;27.678;2022-10-03T03:28:43;18;17.8;15
62981;PMS5003;49075;53.988;27.678;2022-10-03T03:34:17;15.6;15.6;13.6
62981;PMS5003;49075;53.988;27.678;2022-10-03T03:49:59;15.6;15.6;12.4
62981;PMS5003;49075;53.988;27.678;2022-10-03T03:54:04;16.6;16.6;14.6
62981;PMS5003;49075;53.988;27.678;2022-10-03T03:59:11;16.2;16.2;12.4
62981;PMS5003;49075;53.988;27.678;2022-10-03T04:04:11;20;18.8;14.8
62981;PMS5003;49075;53.988;27.678;2022-10-03T04:09:29;17.4;17;13.6
62981;PMS5003;49075;53.988;27.678;2022-10-03T04:14:38;16.8;16;13
62981;PMS5003;49075;53.988;27.678;2022-10-03T04:18:45;18;17.8;15
62981;PMS5003;49075;53.988;27.678;2022-10-03T04:28:58;17.6;17.2;14
62981;PMS5003;49075;53.988;27.678;2022-10-03T04:34:38;16.2;16.2;13.6
62981;PMS5003;49075;53.988;27.678;2022-10-03T04:39:28;17.4;17.2;15
62981;PMS5003;49075;53.988;27.678;2022-10-03T04:43:57;16;15.8;12.6
62981;PMS5003;49075;53.988;27.678;2022-10-03T04:48:40;17;16.6;14.6
62981;PMS5003;49075;53.988;27.678;2022-10-03T04:54:45;16.2;15.8;12.4
62981;PMS5003;49075;53.988;27.678;2022-10-03T05:04:04;18.6;17.8;14.6
62981;PMS5003;49075;53.988;27.678;2022-10-03T05:08:56;16.6;16.6;13.6
62981;PMS5003;49075;53.988;27.678;2022-10-03T05:13:42;15.6;15.6;12.6
62981;PMS5003;49075;53.988;27.678;2022-10-03T05:24:26;17.6;17.2;13.4
62981;PMS5003;49075;53.988;27.678;2022-10-03T05:29:23;16.4;16.2;13.8
62981;PMS5003;49075;53.988;27.678;2022-10-03T05:34:31;16;15.4;12.8
62981;PMS5003;49075;53.988;27.678;2022-10-03T05:39:13;17.6;17.4;14
62981;PMS5003;49075;53.988;27.678;2022-10-03T05:48:52;13.8;13.8;11.4
62981;PMS5003;49075;53.988;27.678;2022-10-03T05:54:35;15;14.8;12.8
62981;PMS5003;49075;53.988;27.678;2022-10-03T05:59:54;16.4;16;14
62981;PMS5003;49075;53.988;27.678;2022-10-03T06:03:49;15.8;15.4;12.6
62981;PMS5003;49075;53.988;27.678;2022-10-03T06:10:32;15;15;12.6
62981;PMS5003;49075;53.988;27.678;2022-10-03T06:14:26;17.4;17.4;15
62981;PMS5003;49075;53.988;27.678;2022-10-03T06:19:31;16;15.8;13.5
62981;PMS5003;49075;53.988;27.678;2022-10-03T06:28:43;18.8;18.2;15
62981;PMS5003;49075;53.988;27.678;2022-10-03T06:33:52;15.2;15.2;12.8
62981;PMS5003;49075;53.988;27.678;2022-10-03T06:53:56;13.8;13.8;12.2
62981;PMS5003;49075;53.988;27.678;2022-10-03T06:59:02;12.4;12.4;9.8
62981;PMS5003;49075;53.988;27.678;2022-10-03T07:14:08;15.6;15.4;13
62981;PMS5003;49075;53.988;27.678;2022-10-03T07:24:51;12.8;12.8;12.2
62981;PMS5003;49075;53.988;27.678;2022-10-03T07:29:26;14.2;14.2;12
62981;PMS5003;49075;53.988;27.678;2022-10-03T07:39:29;13;13;11
62981;PMS5003;49075;53.988;27.678;2022-10-03T07:44:13;11.8;11.8;10.4
62981;PMS5003;49075;53.988;27.678;2022-10-03T08:04:06;14.8;14.8;12.8
62981;PMS5003;49075;53.988;27.678;2022-10-03T08:13:59;10.6;10.6;10.2
62981;PMS5003;49075;53.988;27.678;2022-10-03T08:29:27;11.4;11.4;10.6
62981;PMS5003;49075;53.988;27.678;2022-10-03T08:34:17;13.8;13.6;12.4
62981;PMS5003;49075;53.988;27.678;2022-10-03T08:38:57;14.2;14.2;12.2
62981;PMS5003;49075;53.988;27.678;2022-10-03T08:49:16;13;13;12.6
62981;PMS5003;49075;53.988;27.678;2022-10-03T08:59:33;13.8;13.8;12.4
62981;PMS5003;49075;53.988;27.678;2022-10-03T09:05:31;10.6;10.6;9.4
62981;PMS5003;49075;53.988;27.678;2022-10-03T09:10:35;12;12;10.4
62981;PMS5003;49075;53.988;27.678;2022-10-03T09:14:31;12.6;12.6;11
62981;PMS5003;49075;53.988;27.678;2022-10-03T09:24:31;10.3;10.3;9.3
62981;PMS5003;49075;53.988;27.678;2022-10-03T09:40:02;12;11.8;10.8
62981;PMS5003;49075;53.988;27.678;2022-10-03T10:04:36;12.6;12.2;12
62981;PMS5003;49075;53.988;27.678;2022-10-03T10:09:31;11;11;10.8
62981;PMS5003;49075;53.988;27.678;2022-10-03T10:14:13;10.4;10.4;10.4
62981;PMS5003;49075;53.988;27.678;2022-10-03T10:19:06;9.2;9.2;9.2
62981;PMS5003;49075;53.988;27.678;2022-10-03T10:23:50;8.8;8.8;8.5
62981;PMS5003;49075;53.988;27.678;2022-10-03T10:29:24;9.6;9.6;9
62981;PMS5003;49075;53.988;27.678;2022-10-03T10:39:07;10.6;10.6;9.8
62981;PMS5003;49075;53.988;27.678;2022-10-03T10:49:33;10.4;10.2;9.4
62981;PMS5003;49075;53.988;27.678;2022-10-03T10:54:53;12.6;12.6;11.6
62981;PMS5003;49075;53.988;27.678;2022-10-03T11:08:54;13.2;13.2;11.6
62981;PMS5003;49075;53.988;27.678;2022-10-03T11:33:58;10;10;9
62981;PMS5003;49075;53.988;27.678;2022-10-03T11:38:54;9.8;9.4;9
62981;PMS5003;49075;53.988;27.678;2022-10-03T11:44:35;10.8;10.8;10.6
62981;PMS5003;49075;53.988;27.678;2022-10-03T11:49:05;13.8;13.8;11.6
62981;PMS5003;49075;53.988;27.678;2022-10-03T11:53:53;11.2;11.2;10.2
62981;PMS5003;49075;53.988;27.678;2022-10-03T11:59:28;11.2;11.2;10.2
62981;PMS5003;49075;53.988;27.678;2022-10-03T12:09:27;10;9.6;9.2
62981;PMS5003;49075;53.988;27.678;2022-10-03T12:15:02;8.6;8.6;8.4
62981;PMS5003;49075;53.988;27.678;2022-10-03T12:19:26;9.2;9.2;8.8
62981;PMS5003;49075;53.988;27.678;2022-10-03T12:24:25;8.5;8.5;8.5
62981;PMS5003;49075;53.988;27.678;2022-10-03T12:28:51;10.2;10.2;9.4
62981;PMS5003;49075;53.988;27.678;2022-10-03T12:39:25;10;10;9.8
62981;PMS5003;49075;53.988;27.678;2022-10-03T12:44:23;9.4;9.4;9.2
62981;PMS5003;49075;53.988;27.678;2022-10-03T12:48:48;13.6;13.2;11.4
62981;PMS5003;49075;53.988;27.678;2022-10-03T12:54:55;11.6;11.6;11.4
62981;PMS5003;49075;53.988;27.678;2022-10-03T12:58:52;10.4;10.4;10
62981;PMS5003;49075;53.988;27.678;2022-10-03T13:03:54;11.6;11.6;9.6
62981;PMS5003;49075;53.988;27.678;2022-10-03T13:09:21;10.8;10.8;10
62981;PMS5003;49075;53.988;27.678;2022-10-03T13:18:51;10.4;10.4;9.6
62981;PMS5003;49075;53.988;27.678;2022-10-03T13:24:25;11.8;11.8;10.8
62981;PMS5003;49075;53.988;27.678;2022-10-03T13:29:58;11;11;11
62981;PMS5003;49075;53.988;27.678;2022-10-03T13:33:51;10.2;10.2;9.8
62981;PMS5003;49075;53.988;27.678;2022-10-03T13:39:23;9.2;8.8;8.4
62981;PMS5003;49075;53.988;27.678;2022-10-03T13:43:39;11.2;11.2;9.6
62981;PMS5003;49075;53.988;27.678;2022-10-03T13:49:26;12.2;12.2;11.6
62981;PMS5003;49075;53.988;27.678;2022-10-03T13:54:00;12;12;11.6
62981;PMS5003;49075;53.988;27.678;2022-10-03T13:58:41;12.8;12.8;10.8
62981;PMS5003;49075;53.988;27.678;2022-10-03T14:03:54;10.2;10.2;10
62981;PMS5003;49075;53.988;27.678;2022-10-03T14:18:51;12.6;12.6;12
62981;PMS5003;49075;53.988;27.678;2022-10-03T14:24:58;10.6;10.6;9.4
62981;PMS5003;49075;53.988;27.678;2022-10-03T14:28:48;13.3;13.3;11.5
62981;PMS5003;49075;53.988;27.678;2022-10-03T14:34:40;12.6;12.6;12.6
62981;PMS5003;49075;53.988;27.678;2022-10-03T14:39:14;9.8;9.8;9.4
62981;PMS5003;49075;53.988;27.678;2022-10-03T14:43:43;12;12;10.4
62981;PMS5003;49075;53.988;27.678;2022-10-03T14:49:24;11;11;10.6
62981;PMS5003;49075;53.988;27.678;2022-10-03T14:54:23;11;11;10.8
62981;PMS5003;49075;53.988;27.678;2022-10-03T14:58:51;16.2;16.2;13.2
62981;PMS5003;49075;53.988;27.678;2022-10-03T15:04:31;10.8;10.8;10.6
62981;PMS5003;49075;53.988;27.678;2022-10-03T15:09:22;13;13;11.8
62981;PMS5003;49075;53.988;27.678;2022-10-03T15:14:08;11;11;10.4
62981;PMS5003;49075;53.988;27.678;2022-10-03T15:19:25;10.6;10.6;10.4
62981;PMS5003;49075;53.988;27.678;2022-10-03T15:23:40;11;11;10.8
62981;PMS5003;49075;53.988;27.678;2022-10-03T15:28:56;12.5;12.5;11.8
62981;PMS5003;49075;53.988;27.678;2022-10-03T15:34:24;9.8;9.8;9.4
62981;PMS5003;49075;53.988;27.678;2022-10-03T15:38:48;10.8;10.8;9.8
62981;PMS5003;49075;53.988;27.678;2022-10-03T15:44:23;13.8;13.8;11.8
62981;PMS5003;49075;53.988;27.678;2022-10-03T15:48:56;14.2;13.8;12.8
62981;PMS5003;49075;53.988;27.678;2022-10-03T15:54:23;11.4;11.4;10.6
62981;PMS5003;49075;53.988;27.678;2022-10-03T15:59:21;9.4;9.4;8.4
62981;PMS5003;49075;53.988;27.678;2022-10-03T16:04:22;13.6;13.6;11.2
62981;PMS5003;49075;53.988;27.678;2022-10-03T16:08:55;12.4;12.2;11
62981;PMS5003;49075;53.988;27.678;2022-10-03T16:19:26;11.8;11.8;10.4
62981;PMS5003;49075;53.988;27.678;2022-10-03T16:24:26;10.6;10.6;10.2
62981;PMS5003;49075;53.988;27.678;2022-10-03T16:28:50;9.8;9.8;9.3
62981;PMS5003;49075;53.988;27.678;2022-10-03T16:33:49;12.2;12.2;11.6
62981;PMS5003;49075;53.988;27.678;2022-10-03T16:38:57;11;11;9.8
62981;PMS5003;49075;53.988;27.678;2022-10-03T16:43:54;12;11.8;11
62981;PMS5003;49075;53.988;27.678;2022-10-03T16:53:49;12.6;12.6;10.8
62981;PMS5003;49075;53.988;27.678;2022-10-03T16:58:50;11;11;10.6
62981;PMS5003;49075;53.988;27.678;2022-10-03T17:03:46;10.8;10.8;10.6
62981;PMS5003;49075;53.988;27.678;2022-10-03T17:08:46;12.4;12.4;11.8
62981;PMS5003;49075;53.988;27.678;2022-10-03T17:14:03;11.4;11.4;10.8
62981;PMS5003;49075;53.988;27.678;2022-10-03T17:19:29;10.8;10.8;10.4
62981;PMS5003;49075;53.988;27.678;2022-10-03T17:23:48;13.8;13.8;13.2
62981;PMS5003;49075;53.988;27.678;2022-10-03T17:28:53;12.8;12.3;11
62981;PMS5003;49075;53.988;27.678;2022-10-03T17:34:21;13.2;13.2;11.2
62981;PMS5003;49075;53.988;27.678;2022-10-03T17:39:05;12.4;12.4;11.8
62981;PMS5003;49075;53.988;27.678;2022-10-03T17:43:57;12.6;12.6;11.2
62981;PMS5003;49075;53.988;27.678;2022-10-03T17:49:41;10;10;10
62981;PMS5003;49075;53.988;27.678;2022-10-03T17:54:30;14;14;12.8
62981;PMS5003;49075;53.988;27.678;2022-10-03T17:59:22;10.6;10.6;10.2
62981;PMS5003;49075;53.988;27.678;2022-10-03T18:03:49;14.2;14.2;13.6
62981;PMS5003;49075;53.988;27.678;2022-10-03T18:09:17;11.8;11.8;11.2
62981;PMS5003;49075;53.988;27.678;2022-10-03T18:14:40;9.6;9.4;9.4
62981;PMS5003;49075;53.988;27.678;2022-10-03T18:18:54;11.8;11.8;10.6
62981;PMS5003;49075;53.988;27.678;2022-10-03T18:24:01;11.2;11.2;10.8
62981;PMS5003;49075;53.988;27.678;2022-10-03T18:29:33;12.8;12.8;11.8
62981;PMS5003;49075;53.988;27.678;2022-10-03T18:33:45;11.2;11.2;9.4
62981;PMS5003;49075;53.988;27.678;2022-10-03T18:39:22;15;15;13
62981;PMS5003;49075;53.988;27.678;2022-10-03T18:44:21;12.8;12.8;11.6
62981;PMS5003;49075;53.988;27.678;2022-10-03T18:48:57;11;11;10.8
62981;PMS5003;49075;53.988;27.678;2022-10-03T18:54:01;11.6;11.6;11.6
62981;PMS5003;49075;53.988;27.678;2022-10-03T18:59:01;9;9;9
62981;PMS5003;49075;53.988;27.678;2022-10-03T19:04:40;11.2;11.2;11.2
62981;PMS5003;49075;53.988;27.678;2022-10-03T19:09:06;11.6;11.6;10.2
62981;PMS5003;49075;53.988;27.678;2022-10-03T19:14:27;10.6;10.6;10.4
62981;PMS5003;49075;53.988;27.678;2022-10-03T19:19:24;10.5;10.5;9.8
62981;PMS5003;49075;53.988;27.678;2022-10-03T19:23:38;9.8;9.8;9.8
62981;PMS5003;49075;53.988;27.678;2022-10-03T19:28:51;11.4;11.4;10.6
62981;PMS5003;49075;53.988;27.678;2022-10-03T19:33:45;9.6;9.6;9
62981;PMS5003;49075;53.988;27.678;2022-10-03T19:38:57;10.6;10.6;10.2
62981;PMS5003;49075;53.988;27.678;2022-10-03T19:43:50;13;12.8;11.6
62981;PMS5003;49075;53.988;27.678;2022-10-03T19:53:44;10.6;10.6;9.6
62981;PMS5003;49075;53.988;27.678;2022-10-03T19:59:35;9.6;9.4;9
62981;PMS5003;49075;53.988;27.678;2022-10-03T20:03:53;11.8;11.8;11.4
62981;PMS5003;49075;53.988;27.678;2022-10-03T20:09:23;11;11;11
62981;PMS5003;49075;53.988;27.678;2022-10-03T20:14:21;9.8;9.8;9.2
62981;PMS5003;49075;53.988;27.678;2022-10-03T20:18:51;10.8;10.8;10.8
62981;PMS5003;49075;53.988;27.678;2022-10-03T20:24:25;15.6;15.6;14.4
62981;PMS5003;49075;53.988;27.678;2022-10-03T20:29:23;9.2;9.2;9.2
62981;PMS5003;49075;53.988;27.678;2022-10-03T20:33:51;11.4;11.4;11.2
62981;PMS5003;49075;53.988;27.678;2022-10-03T20:39:20;9.6;9.6;9.4
62981;PMS5003;49075;53.988;27.678;2022-10-03T20:43:57;8.6;8.6;8.6
62981;PMS5003;49075;53.988;27.678;2022-10-03T20:48:46;14.2;14;13
62981;PMS5003;49075;53.988;27.678;2022-10-03T20:53:51;9.8;9.8;9
62981;PMS5003;49075;53.988;27.678;2022-10-03T20:59:25;11;11;10.6
62981;PMS5003;49075;53.988;27.678;2022-10-03T21:03:42;7.4;7.4;7.2
62981;PMS5003;49075;53.988;27.678;2022-10-03T21:09:32;8.3;8.3;8
62981;PMS5003;49075;53.988;27.678;2022-10-03T21:13:48;9.4;9.4;9.2
62981;PMS5003;49075;53.988;27.678;2022-10-03T21:18:41;11.8;11.8;11.8
62981;PMS5003;49075;53.988;27.678;2022-10-03T21:23:45;12.6;12.4;12
62981;PMS5003;49075;53.988;27.678;2022-10-03T21:28:40;9.2;9.2;9
62981;PMS5003;49075;53.988;27.678;2022-10-03T21:34:22;14;14;12.8
62981;PMS5003;49075;53.988;27.678;2022-10-03T21:38:39;12.4;12.4;12
62981;PMS5003;49075;53.988;27.678;2022-10-03T21:44:27;10.6;10.6;9.6
62981;PMS5003;49075;53.988;27.678;2022-10-03T21:50:06;9.4;9.2;9.2
62981;PMS5003;49075;53.988;27.678;2022-10-03T21:54:34;11.6;11.6;11.2
62981;PMS5003;49075;53.988;27.678;2022-10-03T21:59:10;13.6;13.6;12.2
62981;PMS5003;49075;53.988;27.678;2022-10-03T22:04:01;11.6;11.6;11
62981;PMS5003;49075;53.988;27.678;2022-10-03T22:09:10;11.3;11.3;11.3
62981;PMS5003;49075;53.988;27.678;2022-10-03T22:13:40;12.2;12.2;9.8
62981;PMS5003;49075;53.988;27.678;2022-10-03T22:18:54;9;9;8.6
62981;PMS5003;49075;53.988;27.678;2022-10-03T22:24:03;10.4;10.4;10.4
62981;PMS5003;49075;53.988;27.678;2022-10-03T22:29:04;12;12;10
62981;PMS5003;49075;53.988;27.678;2022-10-03T22:34:41;8.6;8.6;8.2
62981;PMS5003;49075;53.988;27.678;2022-10-03T22:39:20;8.8;8.8;7.6
62981;PMS5003;49075;53.988;27.678;2022-10-03T22:43:51;16.4;16.4;13.8
62981;PMS5003;49075;53.988;27.678;2022-10-03T22:49:19;9.6;9.6;9.6
62981;PMS5003;49075;53.988;27.678;2022-10-03T22:54:18;10.6;10.6;10.4
62981;PMS5003;49075;53.988;27.678;2022-10-03T22:58:54;8.2;8.2;7.8
62981;PMS5003;49075;53.988;27.678;2022-10-03T23:03:50;11.2;11.2;10
62981;PMS5003;49075;53.988;27.678;2022-10-03T23:09:00;10;10;9.5
62981;PMS5003;49075;53.988;27.678;2022-10-03T23:13:50;10.8;10.8;10.2
62981;PMS5003;49075;53.988;27.678;2022-10-03T23:24:17;12.6;12.6;11.6
62981;PMS5003;49075;53.988;27.678;2022-10-03T23:29:17;8.8;8.8;8.8
62981;PMS5003;49075;53.988;27.678;2022-10-03T23:33:52;10.4;10.4;10.4
62981;PMS5003;49075;53.988;27.678;2022-10-03T23:38:55;7.6;7.6;6.8
62981;PMS5003;49075;53.988;27.678;2022-10-03T23:44:24;14;14;12.6
62981;PMS5003;49075;53.988;27.678;2022-10-03T23:48:52;9.2;9.2;9.2
62981;PMS5003;49075;53.988;27.678;2022-10-03T23:53:51;12.4;12.4;11.2
62981;PMS5003;49075;53.988;27.678;2022-10-03T23:59:09;9.2;9.2;8.8
